Pagina principale
METAR-TAF:

METAR-TAF

Aeroporti :

Napoli, Italia

Aeroporto di Napoli-Capodichino

latitudine: 40-51N, longitudine: 014-18E, altezza: 88 m

Osservazione

Il bollettino è stato emesso 11 minuti fa, alle 10:20 UTC
Vento 3 kt da nord-est, variando fra nord-ovest e est
Temperature 22°C
Umidità 29%
Pressione 1020 hPa
Visibilità 10 km o più
nessuna nube inferiore a 1500 m e nessun cumulonembo

METAR: LIRN 211020Z 04003KT 320V100 CAVOK 22/03 Q1020 NOSIG

Ora: 12:31 (10:31 UTC)

Previsione

Il bollettino è stato emesso 5 ore e 31 minuti fa, alle 05:00 UTC
Previsione valida dal 21 alle 06 UTC al 22 alle 06 UTC
Vento 6 kt da nord-est
Visibilità 10 km o più
Poco nuvoloso ad un'altezza di 3000 ft
Evoluzione graduale
dal 21 alle 08 UTC al 21 alle 10 UTC
Vento 12 kt da ovest
Evoluzione graduale
dal 21 alle 18 UTC al 21 alle 20 UTC
Vento 4 kt da direzioni variabili

TAF: LIRN 210500Z 2106/2206 04006KT 9999 FEW030 BECMG 2108/2110 28012KT BECMG 2118/2120 VRB04KT

Osservazioni e previsioni meteorologiche di più di 4000 aeroporti (messaggi METAR e TAF).

Le stazioni disponibili sono rappresentate dai dischi gialli e rossi sulla carta.

Puntare il mouse per vedere il nome della stazione.

Clicca sopra per visualizzare le osservazioni e previsioni meteorologiche.

Per cambiare la mappa : fare clic sui pulsanti verdi con una croce nera per ingrandire, il pulsante verde con un trattino per diminuire, o sulla freccia verde per le mappe adiacenti.


METAR-TAF: